Starrhs Ferry, Idaho
Current Conditions -  °F | °C
As of 2:53 AM on Monday 22 Dec 2014 (Local Time) from KBYI Reporting Station
Overcast Overcast  
Wind Chill: 26°   Ceiling: 1900
Heat Index: 36°   Visibility: 10mi
Dew Point: 32°   Wind: 16mph
Humidity: 86%   Direction: 260°W
Pressure: 30.01"   Gusts: 22mph
Location:  42.5011°N, 113.814°W
Report Text: KBYI 220953Z AUTO 26014G19KT 10SM OVC019 02/00 A3001 RMK AO2 SLP163 T00220000
Loading
Personal Weather Stations






























Interactive Weather Map New forecast layout! Learn more

10-Day Weather Forecast

Advertisements
Track Severe Weather on mobile